Time;durP1;ratioP1;P1;durP2;ratioP2;P2;SDS_P1;SDS_P2;PMS_P1;PMS_P2;Temp;Humidity;BMP_temperature;BMP_pressure;BME280_temperature;BME280_humidity;BME280_pressure;Samples;Min_cycle;Max_cycle;Signal;HPM_P1;HPM_P2
2024/04/13 00:01:38;;;;;;;5.27;3.63;;;16.80;99.90;;;;;;5437081;26;20606;-77
2024/04/13 00:04:07;;;;;;;5.17;4.00;;;16.70;99.90;;;;;;5437189;26;20631;-76
2024/04/13 00:06:33;;;;;;;7.40;3.73;;;16.70;99.90;;;;;;5430060;26;20535;-76
2024/04/13 00:08:59;;;;;;;7.00;3.60;;;16.70;99.90;;;;;;5438268;26;20596;-75
2024/04/13 00:11:25;;;;;;;5.40;4.10;;;16.70;99.90;;;;;;5437411;26;20549;-75
2024/04/13 00:13:51;;;;;;;6.90;4.03;;;16.70;99.90;;;;;;5427353;26;20561;-76
2024/04/13 00:16:18;;;;;;;5.63;3.83;;;16.70;99.90;;;;;;5444537;26;20520;-75
2024/04/13 00:18:45;;;;;;;6.27;3.60;;;16.70;99.90;;;;;;5428535;26;20918;-76
2024/04/13 00:21:11;;;;;;;6.80;4.30;;;16.60;99.90;;;;;;5448289;26;20800;-76
2024/04/13 00:23:37;;;;;;;6.93;4.10;;;16.60;99.90;;;;;;5446681;26;21193;-76
2024/04/13 00:26:04;;;;;;;5.40;3.90;;;16.60;99.90;;;;;;5431232;26;20626;-76
2024/04/13 00:28:30;;;;;;;4.13;3.10;;;16.60;99.90;;;;;;5434980;26;20619;-77
2024/04/13 00:30:56;;;;;;;4.23;3.33;;;16.60;99.90;;;;;;5445106;26;20652;-75
2024/04/13 00:33:22;;;;;;;4.80;3.17;;;16.60;99.90;;;;;;5436300;26;21588;-76
2024/04/13 00:35:50;;;;;;;5.80;3.37;;;16.60;99.90;;;;;;5442552;26;20610;-76
2024/04/13 00:38:17;;;;;;;6.87;3.80;;;16.60;99.90;;;;;;5443279;26;20684;-76
2024/04/13 00:40:43;;;;;;;6.10;3.50;;;16.60;99.90;;;;;;5432629;26;20616;-76
2024/04/13 00:43:11;;;;;;;4.70;3.27;;;16.50;99.90;;;;;;5444307;26;20558;-76
2024/04/13 00:45:44;;;;;;;7.90;4.77;;;16.50;99.90;;;;;;5417828;26;20559;-76
2024/04/13 00:48:13;;;;;;;4.00;3.23;;;16.50;99.90;;;;;;5446386;26;20604;-77
2024/04/13 00:50:42;;;;;;;5.30;3.20;;;16.50;99.90;;;;;;5436266;26;20582;-76
2024/04/13 00:53:11;;;;;;;6.47;3.20;;;16.50;99.90;;;;;;5434839;26;20628;-76
2024/04/13 00:55:43;;;;;;;5.23;3.53;;;16.50;99.90;;;;;;5444431;26;20663;-76
2024/04/13 00:58:11;;;;;;;5.57;3.13;;;16.50;99.90;;;;;;5439111;26;20529;-76
2024/04/13 01:00:39;;;;;;;6.37;3.53;;;16.50;99.90;;;;;;5454938;26;20533;-77
2024/04/13 01:03:06;;;;;;;6.20;4.20;;;16.50;99.90;;;;;;5424436;26;20632;-77
2024/04/13 01:05:32;;;;;;;6.13;3.67;;;16.50;99.90;;;;;;5452585;26;20551;-76
2024/04/13 01:08:00;;;;;;;5.07;3.27;;;16.50;99.90;;;;;;5433042;26;20684;-75
2024/04/13 01:10:27;;;;;;;4.17;3.53;;;16.40;99.90;;;;;;5436807;26;20583;-77
2024/04/13 01:12:54;;;;;;;7.03;3.47;;;16.40;99.90;;;;;;5443863;26;21004;-76
2024/04/13 01:15:20;;;;;;;4.67;4.03;;;16.50;99.90;;;;;;5433551;26;20605;-76
2024/04/13 01:17:49;;;;;;;6.17;3.83;;;16.40;99.90;;;;;;5436597;26;20592;-75
2024/04/13 01:20:17;;;;;;;4.70;3.67;;;16.40;99.90;;;;;;5450787;26;20615;-76
2024/04/13 01:22:45;;;;;;;7.00;4.40;;;16.30;99.90;;;;;;5440826;26;20627;-76
2024/04/13 01:25:15;;;;;;;4.57;3.53;;;16.40;99.90;;;;;;5422231;26;21313;-77
2024/04/13 01:27:42;;;;;;;5.00;3.13;;;16.30;99.90;;;;;;5441140;26;20878;-76
2024/04/13 01:30:12;;;;;;;4.80;4.20;;;16.30;99.90;;;;;;5429035;26;20633;-77
2024/04/13 01:32:39;;;;;;;6.27;4.00;;;16.30;99.90;;;;;;5451040;26;20582;-76
2024/04/13 01:35:13;;;;;;;4.40;3.70;;;16.20;99.90;;;;;;5439411;26;20633;-76
2024/04/13 01:37:40;;;;;;;5.57;3.90;;;16.20;99.90;;;;;;5446227;26;20933;-76
2024/04/13 01:40:10;;;;;;;6.33;3.53;;;16.20;99.90;;;;;;5432110;26;20559;-76
2024/04/13 01:42:37;;;;;;;6.17;3.27;;;16.20;99.90;;;;;;5447225;26;20608;-76
2024/04/13 01:45:04;;;;;;;4.23;3.67;;;16.20;99.90;;;;;;5448705;26;20587;-77
2024/04/13 01:47:30;;;;;;;4.13;3.70;;;16.20;99.90;;;;;;5438404;26;20592;-77
2024/04/13 01:49:57;;;;;;;6.57;4.23;;;16.20;99.90;;;;;;5444821;26;20630;-77
2024/04/13 01:52:23;;;;;;;4.17;3.33;;;16.20;99.90;;;;;;5444952;26;21136;-76
2024/04/13 01:54:49;;;;;;;4.97;4.47;;;16.20;99.90;;;;;;5447889;26;20620;-76
2024/04/13 01:57:16;;;;;;;7.80;4.43;;;16.20;99.90;;;;;;5452969;26;20592;-76
2024/04/13 01:59:42;;;;;;;6.40;3.80;;;16.20;99.90;;;;;;5444570;26;20581;-76
2024/04/13 02:02:12;;;;;;;7.53;3.73;;;16.20;99.90;;;;;;5439556;26;20680;-76
2024/04/13 02:04:38;;;;;;;5.77;2.90;;;16.20;99.90;;;;;;5459281;26;20616;-76
2024/04/13 02:07:05;;;;;;;5.10;4.10;;;16.20;99.90;;;;;;5437925;26;20653;-76
2024/04/13 02:09:33;;;;;;;5.07;4.10;;;16.20;99.90;;;;;;5448464;26;20531;-77
2024/04/13 02:12:02;;;;;;;8.20;5.50;;;16.20;99.90;;;;;;5448536;26;20582;-76
2024/04/13 02:14:28;;;;;;;6.57;3.80;;;16.20;99.90;;;;;;5446855;26;20640;-76
2024/04/13 02:16:54;;;;;;;5.27;3.20;;;16.20;99.90;;;;;;5434392;26;20560;-76
2024/04/13 02:19:20;;;;;;;4.93;3.87;;;16.20;99.90;;;;;;5440271;26;20619;-76
2024/04/13 02:21:48;;;;;;;5.67;3.90;;;16.20;99.90;;;;;;5434178;26;20587;-76
2024/04/13 02:24:14;;;;;;;4.70;4.03;;;16.20;99.90;;;;;;5423126;26;21174;-76
2024/04/13 02:26:40;;;;;;;6.80;4.00;;;16.20;99.90;;;;;;5435970;26;20646;-77
2024/04/13 02:29:06;;;;;;;6.47;4.10;;;16.20;99.90;;;;;;5435463;26;20604;-76
2024/04/13 02:31:33;;;;;;;4.40;4.00;;;16.20;99.90;;;;;;5435095;26;20580;-76
2024/04/13 02:33:59;;;;;;;6.67;4.60;;;16.20;99.90;;;;;;5441958;26;20576;-76
2024/04/13 02:36:25;;;;;;;5.27;4.30;;;16.20;99.90;;;;;;5459093;26;20616;-76
2024/04/13 02:38:51;;;;;;;4.63;4.13;;;16.20;99.90;;;;;;5439917;26;20957;-76
2024/04/13 02:41:19;;;;;;;4.87;4.07;;;16.20;99.90;;;;;;5428600;26;20634;-76
2024/04/13 02:43:45;;;;;;;5.27;4.20;;;16.20;99.90;;;;;;5430307;26;20561;-76
2024/04/13 02:46:11;;;;;;;8.33;4.70;;;16.20;99.90;;;;;;5429995;26;20895;-76
2024/04/13 02:48:42;;;;;;;7.63;3.60;;;16.20;99.90;;;;;;5425309;26;20603;-77
2024/04/13 02:51:09;;;;;;;5.90;3.87;;;16.20;99.90;;;;;;5424071;26;20567;-76
2024/04/13 02:53:36;;;;;;;5.70;3.27;;;16.20;99.90;;;;;;5427517;26;20853;-76
2024/04/13 02:56:04;;;;;;;4.50;3.23;;;16.20;99.90;;;;;;5420542;26;20556;-76
2024/04/13 02:58:30;;;;;;;5.23;4.43;;;16.20;99.90;;;;;;5407860;26;20600;-76
2024/04/13 03:00:57;;;;;;;7.87;3.97;;;16.20;99.90;;;;;;5421366;26;20605;-76
2024/04/13 03:03:25;;;;;;;6.53;4.10;;;16.30;99.90;;;;;;5431585;26;20577;-77
2024/04/13 03:06:09;;;;;;;6.50;3.50;;;16.20;99.90;;;;;;5422565;26;20602;-77
2024/04/13 03:08:35;;;;;;;4.73;3.53;;;16.20;99.90;;;;;;5419735;26;20589;-76
2024/04/13 03:11:03;;;;;;;4.67;3.83;;;16.20;99.90;;;;;;5438109;26;20572;-76
2024/04/13 03:13:29;;;;;;;4.10;3.10;;;16.20;99.90;;;;;;5441570;26;20641;-76
2024/04/13 03:16:04;;;;;;;4.30;3.90;;;16.20;99.90;;;;;;5429630;26;20654;-76
2024/04/13 03:18:31;;;;;;;6.87;3.80;;;16.10;99.90;;;;;;5425213;26;20575;-76
2024/04/13 03:20:57;;;;;;;7.60;2.90;;;16.10;99.90;;;;;;5440827;26;20613;-76
2024/04/13 03:23:25;;;;;;;5.50;4.37;;;16.10;99.90;;;;;;5425276;26;20640;-77
2024/04/13 03:25:52;;;;;;;5.83;4.03;;;16.10;99.90;;;;;;5420263;26;20647;-76
2024/04/13 03:28:25;;;;;;;4.73;3.57;;;16.10;99.90;;;;;;5429261;26;20540;-77
2024/04/13 03:30:51;;;;;;;5.57;3.90;;;16.10;99.90;;;;;;5431066;26;20612;-76
2024/04/13 03:33:17;;;;;;;5.00;3.60;;;16.10;99.90;;;;;;5428622;26;20926;-76
2024/04/13 03:35:44;;;;;;;5.80;3.90;;;16.00;99.90;;;;;;5432766;26;20604;-76
2024/04/13 03:38:11;;;;;;;6.20;3.87;;;16.00;99.90;;;;;;5430617;26;21004;-76
2024/04/13 03:40:37;;;;;;;5.57;3.33;;;16.00;99.90;;;;;;5442486;26;20553;-77
2024/04/13 03:43:04;;;;;;;5.40;3.80;;;15.90;99.90;;;;;;5442092;26;20649;-76
2024/04/13 03:45:30;;;;;;;4.87;3.50;;;15.90;99.90;;;;;;5462031;26;20592;-77
2024/04/13 03:47:56;;;;;;;6.27;4.73;;;15.90;99.90;;;;;;5421833;26;21197;-76
2024/04/13 03:50:23;;;;;;;4.80;3.93;;;15.90;99.90;;;;;;5421380;26;20592;-76
2024/04/13 03:52:49;;;;;;;6.43;3.50;;;15.90;99.90;;;;;;5442371;26;20533;-76
2024/04/13 03:55:15;;;;;;;4.83;3.53;;;15.90;99.90;;;;;;5424475;26;20874;-76
2024/04/13 03:57:41;;;;;;;7.57;4.70;;;15.80;99.90;;;;;;5438182;26;20628;-77
2024/04/13 04:00:08;;;;;;;6.13;4.20;;;15.80;99.90;;;;;;5430257;26;20583;-77
2024/04/13 04:02:40;;;;;;;7.23;5.00;;;15.80;99.90;;;;;;5448706;26;20521;-76
2024/04/13 04:05:06;;;;;;;5.20;4.60;;;15.70;99.90;;;;;;5420392;26;20597;-76
2024/04/13 04:07:33;;;;;;;7.03;4.60;;;15.70;99.90;;;;;;5424214;26;20535;-77
2024/04/13 04:10:00;;;;;;;6.50;4.47;;;15.60;99.90;;;;;;5428757;26;20510;-77
2024/04/13 04:12:26;;;;;;;6.50;4.50;;;15.60;99.90;;;;;;5430015;26;20551;-77
2024/04/13 04:14:53;;;;;;;7.40;4.00;;;15.50;99.90;;;;;;5398630;26;20618;-76
2024/04/13 04:17:19;;;;;;;5.20;4.10;;;15.60;99.90;;;;;;5428203;26;20700;-76
2024/04/13 04:19:45;;;;;;;4.83;3.97;;;15.50;99.90;;;;;;5416117;26;20631;-76
2024/04/13 04:22:11;;;;;;;8.53;4.10;;;15.50;99.90;;;;;;5466394;26;21513;-76
2024/04/13 04:24:38;;;;;;;5.87;4.60;;;15.50;99.90;;;;;;5418549;26;20662;-77
2024/04/13 04:27:05;;;;;;;5.60;3.20;;;15.40;99.90;;;;;;5431343;26;20527;-77
2024/04/13 04:29:34;;;;;;;7.13;3.80;;;15.40;99.90;;;;;;5439889;26;20524;-77
2024/04/13 04:32:01;;;;;;;7.00;4.07;;;15.40;99.90;;;;;;5435340;26;20515;-76
2024/04/13 04:34:27;;;;;;;5.00;3.60;;;15.40;99.90;;;;;;5427802;26;20569;-77
2024/04/13 04:36:56;;;;;;;3.90;3.50;;;15.40;99.90;;;;;;5432911;26;20624;-76
2024/04/13 04:39:23;;;;;;;5.10;3.27;;;15.40;99.90;;;;;;5423896;26;20904;-76
2024/04/13 04:41:49;;;;;;;6.67;3.67;;;15.30;99.90;;;;;;5437749;26;20561;-76
2024/04/13 04:44:15;;;;;;;4.97;3.70;;;15.30;99.90;;;;;;5425069;26;20695;-76
2024/04/13 04:46:41;;;;;;;7.30;4.13;;;15.20;99.90;;;;;;5438584;26;20931;-77
2024/04/13 04:49:07;;;;;;;6.07;4.30;;;15.20;99.90;;;;;;5435760;26;20549;-76
2024/04/13 04:51:33;;;;;;;5.90;4.20;;;15.20;99.90;;;;;;5437649;26;20592;-76
2024/04/13 04:54:00;;;;;;;5.00;3.67;;;15.20;99.90;;;;;;5437512;26;20612;-75
2024/04/13 04:56:31;;;;;;;7.00;4.30;;;15.10;99.90;;;;;;5451426;26;20567;-76
2024/04/13 04:58:58;;;;;;;6.20;3.90;;;15.20;99.90;;;;;;5416481;26;20635;-77
2024/04/13 05:01:24;;;;;;;7.57;4.40;;;15.20;99.90;;;;;;5445359;26;21206;-75
2024/04/13 05:03:50;;;;;;;4.23;3.10;;;15.10;99.90;;;;;;5423884;26;20634;-76
2024/04/13 05:06:18;;;;;;;5.37;4.00;;;15.20;99.90;;;;;;5449923;26;20507;-76
2024/04/13 05:08:47;;;;;;;4.70;3.87;;;15.20;99.90;;;;;;5445740;26;20599;-76
2024/04/13 05:11:14;;;;;;;6.27;3.30;;;15.20;99.90;;;;;;5441304;26;20645;-76
2024/04/13 05:13:40;;;;;;;8.73;3.70;;;15.20;99.90;;;;;;5442601;26;20566;-76
2024/04/13 05:16:10;;;;;;;6.60;3.30;;;15.30;99.90;;;;;;5449705;26;21267;-76
2024/04/13 05:18:37;;;;;;;4.50;3.63;;;15.30;99.90;;;;;;5444415;26;20585;-76
2024/04/13 05:21:03;;;;;;;5.77;3.87;;;15.30;99.90;;;;;;5441943;26;20541;-76
2024/04/13 05:23:29;;;;;;;7.07;4.30;;;15.30;99.90;;;;;;5445768;26;20567;-75
2024/04/13 05:25:56;;;;;;;4.47;3.80;;;15.30;99.90;;;;;;5480009;26;20519;-76
2024/04/13 05:28:23;;;;;;;5.37;4.17;;;15.30;99.90;;;;;;5450105;26;20564;-76
2024/04/13 05:30:56;;;;;;;6.33;4.27;;;15.30;99.90;;;;;;5448853;26;20666;-76
2024/04/13 05:33:26;;;;;;;6.07;4.60;;;15.30;99.90;;;;;;5451414;26;20614;-76
2024/04/13 05:35:52;;;;;;;8.20;4.50;;;15.30;99.90;;;;;;5448859;26;20551;-76
2024/04/13 05:38:19;;;;;;;5.60;4.30;;;15.40;99.90;;;;;;5451148;26;20516;-76
2024/04/13 05:40:45;;;;;;;8.47;4.60;;;15.40;99.90;;;;;;5447032;26;20580;-75
2024/04/13 05:43:11;;;;;;;8.50;5.13;;;15.50;99.90;;;;;;5451541;26;20665;-76
2024/04/13 05:45:38;;;;;;;7.17;4.20;;;15.50;99.90;;;;;;5450324;26;20520;-76
2024/04/13 05:48:04;;;;;;;5.23;3.80;;;15.50;99.90;;;;;;5451525;26;20515;-76
2024/04/13 05:50:31;;;;;;;7.37;5.00;;;15.60;99.90;;;;;;5450447;26;20871;-76
2024/04/13 05:52:57;;;;;;;6.50;4.60;;;15.60;99.90;;;;;;5451146;26;21178;-76
2024/04/13 05:55:23;;;;;;;4.80;4.10;;;15.70;99.90;;;;;;5419226;26;20523;-76
2024/04/13 05:57:49;;;;;;;6.47;5.40;;;15.70;99.90;;;;;;5451223;26;20622;-76
2024/04/13 06:00:15;;;;;;;7.90;4.27;;;15.70;99.90;;;;;;5449703;26;20543;-76
2024/04/13 06:02:41;;;;;;;6.87;5.37;;;15.80;99.90;;;;;;5434114;26;20516;-76
2024/04/13 06:05:08;;;;;;;7.77;4.57;;;15.80;99.90;;;;;;5438992;26;20949;-76
2024/04/13 06:07:34;;;;;;;4.77;3.63;;;15.90;99.90;;;;;;5450564;26;20568;-76
2024/04/13 06:10:00;;;;;;;4.90;3.93;;;16.00;99.90;;;;;;5448583;26;21127;-76
2024/04/13 06:12:27;;;;;;;5.73;4.30;;;16.10;99.90;;;;;;5443345;26;20540;-78
2024/04/13 06:14:53;;;;;;;5.90;4.23;;;16.20;99.90;;;;;;5449478;26;21120;-78
2024/04/13 06:17:19;;;;;;;4.90;4.40;;;16.30;99.90;;;;;;5452389;26;21133;-78
2024/04/13 06:19:46;;;;;;;5.97;4.03;;;16.40;99.90;;;;;;5446580;26;21364;-78
2024/04/13 06:22:13;;;;;;;4.23;3.43;;;16.60;99.90;;;;;;5449006;26;20946;-78
2024/04/13 06:24:39;;;;;;;4.07;3.47;;;16.70;99.90;;;;;;5448875;26;20583;-78
2024/04/13 06:27:05;;;;;;;6.83;3.37;;;16.90;99.90;;;;;;5463851;26;20535;-78
2024/04/13 06:29:31;;;;;;;3.77;3.37;;;17.10;99.90;;;;;;5466293;26;20599;-78
2024/04/13 06:31:59;;;;;;;5.00;3.80;;;17.30;99.90;;;;;;5430580;26;20520;-78
2024/04/13 06:34:25;;;;;;;5.47;3.97;;;17.70;99.90;;;;;;5445735;26;20575;-78
2024/04/13 06:36:51;;;;;;;6.83;3.80;;;18.10;99.90;;;;;;5435873;26;20587;-78
2024/04/13 06:39:17;;;;;;;5.50;3.10;;;18.70;99.90;;;;;;5458243;26;20629;-78
2024/04/13 06:41:44;;;;;;;5.60;3.90;;;19.30;99.90;;;;;;5456311;26;20575;-79
2024/04/13 06:44:10;;;;;;;3.80;2.63;;;19.80;99.90;;;;;;5427652;26;20580;-79
2024/04/13 06:46:36;;;;;;;4.63;3.10;;;20.20;99.90;;;;;;5456260;26;21203;-79
2024/04/13 06:49:04;;;;;;;4.97;3.50;;;20.60;99.90;;;;;;5470166;26;20636;-79
2024/04/13 06:51:30;;;;;;;5.67;3.13;;;21.10;99.90;;;;;;5437054;26;20543;-77
2024/04/13 06:53:56;;;;;;;8.13;2.80;;;21.50;99.90;;;;;;5452214;26;20560;-78
2024/04/13 06:56:22;;;;;;;4.07;2.43;;;21.80;99.90;;;;;;5452609;26;20630;-78
2024/04/13 06:58:48;;;;;;;4.60;2.27;;;22.20;99.90;;;;;;5445360;26;20883;-79
2024/04/13 07:01:15;;;;;;;3.97;2.53;;;22.60;99.90;;;;;;5452103;26;20524;-79
2024/04/13 07:03:41;;;;;;;3.67;3.00;;;22.90;99.90;;;;;;5426832;26;20921;-79
2024/04/13 07:06:08;;;;;;;3.90;2.20;;;22.90;99.90;;;;;;5455056;26;20926;-79
2024/04/13 07:08:34;;;;;;;3.43;2.60;;;23.10;99.90;;;;;;5420527;26;20525;-79
2024/04/13 07:11:00;;;;;;;4.10;2.70;;;23.20;99.90;;;;;;5410435;26;20547;-79
2024/04/13 07:13:27;;;;;;;6.37;3.27;;;23.50;99.90;;;;;;5443580;26;20662;-80
2024/04/13 07:15:54;;;;;;;5.37;2.93;;;23.80;99.90;;;;;;5478469;26;21115;-80
2024/04/13 07:18:20;;;;;;;8.33;2.90;;;24.00;99.90;;;;;;5443115;26;20594;-80
2024/04/13 07:20:46;;;;;;;4.17;3.00;;;24.20;99.90;;;;;;5437507;26;20627;-80
2024/04/13 07:23:15;;;;;;;3.50;2.70;;;24.20;99.90;;;;;;5450738;26;20654;-79
2024/04/13 07:25:41;;;;;;;5.30;2.83;;;24.20;99.90;;;;;;5443386;26;21086;-79
2024/04/13 07:28:07;;;;;;;3.60;2.20;;;24.20;99.90;;;;;;5463723;26;20628;-79
2024/04/13 07:30:33;;;;;;;4.90;2.53;;;24.30;99.90;;;;;;5445890;26;20604;-78
2024/04/13 07:32:59;;;;;;;4.70;1.83;;;24.50;99.90;;;;;;5458044;26;20567;-78
2024/04/13 07:35:26;;;;;;;4.67;2.37;;;25.00;99.90;;;;;;5453052;26;21153;-79
2024/04/13 07:37:53;;;;;;;5.20;2.60;;;25.40;99.90;;;;;;5452058;26;20646;-79
2024/04/13 07:40:19;;;;;;;3.63;2.00;;;25.70;99.90;;;;;;5452021;26;20590;-79
2024/04/13 07:42:52;;;;;;;6.60;3.07;;;26.10;99.90;;;;;;5446293;26;21007;-80
2024/04/13 07:45:18;;;;;;;4.23;2.40;;;26.50;99.90;;;;;;5430379;26;21139;-80
2024/04/13 07:47:45;;;;;;;3.53;2.47;;;26.70;99.90;;;;;;5452682;26;20608;-80
2024/04/13 07:50:11;;;;;;;4.10;3.10;;;26.90;99.90;;;;;;5442693;26;20530;-80
2024/04/13 07:52:37;;;;;;;3.37;2.30;;;27.00;99.90;;;;;;5426067;26;20626;-80
2024/04/13 07:55:03;;;;;;;4.93;2.37;;;27.00;99.90;;;;;;5461659;26;20580;-79
2024/04/13 07:57:30;;;;;;;3.20;1.93;;;27.20;99.90;;;;;;5450242;26;20544;-79
2024/04/13 07:59:56;;;;;;;4.73;2.03;;;27.30;99.90;;;;;;5412454;26;20604;-78
2024/04/13 08:02:22;;;;;;;3.00;1.97;;;27.40;99.90;;;;;;5430364;26;20612;-79
2024/04/13 08:04:48;;;;;;;4.23;2.40;;;27.50;99.90;;;;;;5447201;26;20610;-78
2024/04/13 08:07:15;;;;;;;3.73;2.47;;;27.90;99.90;;;;;;5450255;26;21115;-78
2024/04/13 08:09:41;;;;;;;7.43;2.50;;;28.30;99.90;;;;;;5459236;26;20535;-78
2024/04/13 08:12:12;;;;;;;3.87;2.40;;;28.50;99.90;;;;;;5432412;26;20550;-77
2024/04/13 08:14:38;;;;;;;4.33;2.10;;;28.80;99.90;;;;;;5435183;26;20553;-77
2024/04/13 08:17:06;;;;;;;4.23;2.43;;;29.00;99.90;;;;;;5449434;26;20589;-77
2024/04/13 08:19:32;;;;;;;4.37;2.30;;;29.50;99.90;;;;;;5440759;26;20591;-77
2024/04/13 08:21:58;;;;;;;3.70;1.80;;;29.90;99.90;;;;;;5444285;26;21070;-77
2024/04/13 08:24:25;;;;;;;6.13;2.50;;;30.30;99.90;;;;;;5446048;26;20626;-77
2024/04/13 08:26:51;;;;;;;3.60;1.80;;;30.70;99.90;;;;;;5435068;26;20553;-78
2024/04/13 08:29:17;;;;;;;6.20;1.83;;;30.90;99.90;;;;;;5446522;26;21290;-78
2024/04/13 08:31:44;;;;;;;4.57;2.13;;;31.00;99.90;;;;;;5412442;26;20623;-78
2024/04/13 08:34:13;;;;;;;3.27;2.17;;;31.00;99.90;;;;;;5440588;26;20728;-78
2024/04/13 08:36:39;;;;;;;4.40;2.30;;;31.00;99.90;;;;;;5448158;26;21557;-78
2024/04/13 08:39:12;;;;;;;5.60;2.13;;;31.10;99.90;;;;;;5448495;26;20591;-78
2024/04/13 08:41:46;;;;;;;4.90;2.93;;;31.20;99.90;;;;;;5431232;26;20527;-78
2024/04/13 08:44:12;;;;;;;2.73;1.30;;;31.20;99.00;;;;;;5447914;26;20633;-77
2024/04/13 08:46:40;;;;;;;4.97;1.50;;;31.30;99.50;;;;;;5412389;26;21139;-78
2024/04/13 08:49:08;;;;;;;2.70;2.00;;;31.60;99.20;;;;;;5440571;26;20971;-77
2024/04/13 08:51:39;;;;;;;5.50;2.53;;;31.70;98.20;;;;;;5438101;26;21000;-78
2024/04/13 08:54:07;;;;;;;4.27;1.97;;;31.90;98.00;;;;;;5433130;26;20584;-78
2024/04/13 08:56:39;;;;;;;5.50;1.97;;;32.20;97.70;;;;;;5451966;26;20600;-78
2024/04/13 08:59:09;;;;;;;4.33;1.97;;;32.40;97.10;;;;;;5449837;26;20622;-77
2024/04/13 09:01:37;;;;;;;5.00;2.87;;;32.70;96.90;;;;;;5449707;26;20551;-78
2024/04/13 09:04:04;;;;;;;3.77;1.50;;;32.90;95.60;;;;;;5438167;26;20551;-78
2024/04/13 09:06:31;;;;;;;4.67;1.97;;;33.00;95.10;;;;;;5418449;26;20551;-78
2024/04/13 09:09:08;;;;;;;4.53;1.80;;;33.40;94.90;;;;;;5429028;26;20547;-78
2024/04/13 09:11:37;;;;;;;2.80;1.70;;;33.80;94.50;;;;;;5450891;26;20645;-78
2024/04/13 09:14:04;;;;;;;6.97;2.63;;;34.30;93.90;;;;;;5448991;26;20651;-77
2024/04/13 09:16:32;;;;;;;10.70;3.50;;;34.80;92.70;;;;;;5451445;26;20540;-78
2024/04/13 09:18:59;;;;;;;3.27;1.63;;;35.00;91.40;;;;;;5469120;26;20612;-78
2024/04/13 09:21:32;;;;;;;2.13;1.07;;;35.40;90.90;;;;;;5431916;26;20539;-78
2024/04/13 09:23:58;;;;;;;3.90;1.63;;;35.90;90.20;;;;;;5428846;26;20555;-78
2024/04/13 09:26:25;;;;;;;3.80;1.53;;;36.20;87.60;;;;;;5427428;26;20616;-78
2024/04/13 09:28:51;;;;;;;2.20;0.90;;;36.50;85.80;;;;;;5431051;26;20850;-78
2024/04/13 09:31:18;;;;;;;2.17;1.10;;;36.80;83.20;;;;;;5432151;26;20516;-77
2024/04/13 09:33:48;;;;;;;4.80;1.50;;;37.00;80.70;;;;;;5430129;26;20559;-78
2024/04/13 09:36:25;;;;;;;3.40;1.00;;;37.10;77.50;;;;;;5434299;26;20519;-78
2024/04/13 09:38:55;;;;;;;3.40;1.40;;;37.10;74.50;;;;;;5432130;26;20523;-78
2024/04/13 09:41:22;;;;;;;5.50;1.40;;;37.10;74.10;;;;;;5401436;26;20548;-77
2024/04/13 09:43:52;;;;;;;2.37;1.10;;;37.10;73.40;;;;;;5431586;26;20759;-78
2024/04/13 09:46:19;;;;;;;3.73;1.07;;;37.20;72.20;;;;;;5433180;26;20508;-78
2024/04/13 09:48:46;;;;;;;4.17;1.17;;;37.20;70.70;;;;;;5424301;26;20613;-78
2024/04/13 09:51:12;;;;;;;1.70;1.00;;;37.30;69.40;;;;;;5448680;26;20595;-77
2024/04/13 09:53:38;;;;;;;3.73;1.30;;;37.40;68.10;;;;;;5450311;26;20638;-77
2024/04/13 09:56:05;;;;;;;2.63;0.97;;;37.40;67.20;;;;;;5450541;26;20935;-77
2024/04/13 09:58:32;;;;;;;3.00;1.13;;;37.60;66.10;;;;;;5437614;26;20535;-78
2024/04/13 10:01:04;;;;;;;2.23;1.10;;;37.60;65.40;;;;;;5430113;26;20595;-77
2024/04/13 10:03:31;;;;;;;4.27;1.20;;;37.60;64.00;;;;;;5444000;26;21191;-78
2024/04/13 10:05:58;;;;;;;4.40;1.40;;;37.60;63.30;;;;;;5449387;26;20524;-78
2024/04/13 10:08:28;;;;;;;1.93;0.80;;;37.60;62.50;;;;;;5451067;26;20516;-78
2024/04/13 10:10:54;;;;;;;3.30;0.93;;;37.70;61.80;;;;;;5450771;26;20980;-77
2024/04/13 10:13:32;;;;;;;3.30;1.20;;;37.80;61.50;;;;;;5419084;26;20555;-77
2024/04/13 10:16:00;;;;;;;2.83;0.83;;;37.90;59.80;;;;;;5448889;26;20551;-77
2024/04/13 10:18:27;;;;;;;2.53;1.07;;;37.90;60.70;;;;;;5439971;26;20551;-78
2024/04/13 10:20:56;;;;;;;2.53;1.20;;;38.10;60.10;;;;;;5418524;26;20555;-78
2024/04/13 10:23:22;;;;;;;3.50;1.37;;;38.10;59.40;;;;;;5449075;26;21187;-77
2024/04/13 10:25:58;;;;;;;3.07;0.90;;;38.30;59.40;;;;;;5418177;26;20547;-77
2024/04/13 10:28:24;;;;;;;2.50;1.00;;;38.30;58.50;;;;;;5448266;26;20594;-77
2024/04/13 10:30:53;;;;;;;2.33;0.80;;;38.40;58.10;;;;;;5437408;26;20535;-77
2024/04/13 10:33:26;;;;;;;2.70;1.00;;;38.40;57.60;;;;;;5437063;26;20615;-77
2024/04/13 10:35:57;;;;;;;1.70;0.80;;;38.30;56.90;;;;;;5444272;26;20539;-76
2024/04/13 10:38:25;;;;;;;2.50;0.90;;;38.20;56.50;;;;;;5443076;26;20581;-77
2024/04/13 10:40:51;;;;;;;3.00;0.90;;;38.10;56.50;;;;;;5445476;26;20524;-77
2024/04/13 10:43:21;;;;;;;4.23;1.30;;;38.10;56.60;;;;;;5449547;26;20627;-76
2024/04/13 10:45:57;;;;;;;2.47;1.20;;;37.80;55.70;;;;;;5449627;26;20872;-77
2024/04/13 10:48:26;;;;;;;2.73;1.10;;;37.60;55.30;;;;;;5450704;26;20532;-76
2024/04/13 10:50:55;;;;;;;3.00;1.07;;;37.40;55.50;;;;;;5474668;26;20543;-77
2024/04/13 10:53:23;;;;;;;2.80;1.13;;;37.20;55.50;;;;;;5446147;26;20604;-77
2024/04/13 10:55:50;;;;;;;3.87;1.07;;;37.20;55.70;;;;;;5448215;26;20543;-77
2024/04/13 10:58:17;;;;;;;3.70;1.00;;;37.10;55.50;;;;;;5447303;26;21187;-76
2024/04/13 11:00:49;;;;;;;2.33;1.00;;;37.00;55.30;;;;;;5447040;26;20551;-77
2024/04/13 11:03:16;;;;;;;2.80;0.80;;;36.90;54.80;;;;;;5445145;26;20619;-77
2024/04/13 11:05:45;;;;;;;2.73;1.00;;;36.90;55.20;;;;;;5443973;26;20551;-77
2024/04/13 11:08:12;;;;;;;2.23;0.90;;;36.90;55.00;;;;;;5448593;26;20551;-78
2024/04/13 11:10:42;;;;;;;1.70;0.80;;;36.90;55.10;;;;;;5449797;26;20536;-78
2024/04/13 11:13:09;;;;;;;2.00;0.80;;;36.70;53.60;;;;;;5450082;26;20966;-77
2024/04/13 11:15:35;;;;;;;4.87;0.90;;;36.60;53.40;;;;;;5447868;26;20595;-78
2024/04/13 11:18:04;;;;;;;2.27;1.00;;;36.50;53.00;;;;;;5450070;26;20527;-78
2024/04/13 11:20:32;;;;;;;2.70;1.20;;;36.40;52.90;;;;;;5455619;26;20588;-78
2024/04/13 11:22:59;;;;;;;2.73;1.03;;;36.30;52.60;;;;;;5454137;26;20499;-78
2024/04/13 11:25:25;;;;;;;2.17;0.87;;;36.20;52.60;;;;;;5448120;26;20547;-78
2024/04/13 11:27:52;;;;;;;2.77;0.80;;;36.10;52.80;;;;;;5448362;26;20683;-77
2024/04/13 11:30:19;;;;;;;3.17;1.00;;;36.00;52.20;;;;;;5442057;26;20529;-78
2024/04/13 11:32:45;;;;;;;2.93;0.83;;;36.00;51.70;;;;;;5447643;26;20539;-77
2024/04/13 11:35:12;;;;;;;2.57;0.90;;;35.80;51.90;;;;;;5432899;26;20613;-77
2024/04/13 11:37:39;;;;;;;3.60;1.07;;;35.70;52.20;;;;;;5478589;26;20972;-77
2024/04/13 11:40:13;;;;;;;1.70;0.90;;;35.60;52.10;;;;;;5449553;26;20528;-78
2024/04/13 11:42:42;;;;;;;3.10;0.80;;;35.50;51.90;;;;;;5463953;26;20629;-76
2024/04/13 11:45:10;;;;;;;1.63;0.80;;;35.50;51.90;;;;;;5444413;26;20631;-76
2024/04/13 11:47:37;;;;;;;2.07;1.00;;;35.30;51.90;;;;;;5447669;26;20547;-77
2024/04/13 11:50:06;;;;;;;5.20;1.27;;;35.20;52.40;;;;;;5449074;26;20591;-77
2024/04/13 11:52:32;;;;;;;2.97;0.80;;;35.00;51.60;;;;;;5447525;26;20548;-77
2024/04/13 11:54:59;;;;;;;2.23;1.00;;;34.80;51.80;;;;;;5434362;26;20580;-77
2024/04/13 11:57:25;;;;;;;3.13;1.00;;;34.60;52.00;;;;;;5452504;26;20532;-77
2024/04/13 11:59:52;;;;;;;1.87;0.90;;;34.50;52.20;;;;;;5448336;26;20632;-77
2024/04/13 12:02:20;;;;;;;1.70;0.90;;;34.40;52.20;;;;;;5428693;26;20976;-77
2024/04/13 12:04:46;;;;;;;2.13;0.93;;;34.30;52.50;;;;;;5475888;26;20657;-77
2024/04/13 12:07:14;;;;;;;2.80;1.10;;;34.30;52.80;;;;;;5449312;26;20602;-77
2024/04/13 12:09:40;;;;;;;2.57;1.10;;;34.20;52.60;;;;;;5451548;26;20576;-77
2024/04/13 12:12:12;;;;;;;2.40;1.00;;;34.10;52.50;;;;;;5434336;26;20595;-77
2024/04/13 12:14:39;;;;;;;2.60;0.90;;;34.00;52.60;;;;;;5448900;26;20555;-77
2024/04/13 12:17:05;;;;;;;2.43;0.70;;;34.00;52.10;;;;;;5449255;26;20564;-77
2024/04/13 12:19:32;;;;;;;2.73;1.07;;;33.80;52.30;;;;;;5447297;26;20623;-77
2024/04/13 12:21:58;;;;;;;3.03;1.03;;;33.70;52.00;;;;;;5448701;26;20519;-77
2024/04/13 12:24:24;;;;;;;1.90;0.80;;;33.50;52.20;;;;;;5448937;26;20957;-78
2024/04/13 12:26:50;;;;;;;2.17;0.90;;;33.30;51.90;;;;;;5448565;26;20606;-77
2024/04/13 12:29:16;;;;;;;1.83;0.73;;;33.10;52.00;;;;;;5451867;26;20649;-78
2024/04/13 12:31:42;;;;;;;3.50;1.00;;;32.90;51.90;;;;;;5480980;26;20539;-77
2024/04/13 12:34:08;;;;;;;2.93;0.80;;;32.70;51.80;;;;;;5452064;26;20902;-77
2024/04/13 12:36:38;;;;;;;2.20;0.80;;;32.60;51.90;;;;;;5452457;26;20522;-77
2024/04/13 12:39:04;;;;;;;1.70;0.67;;;32.30;51.90;;;;;;5450514;26;20667;-77
2024/04/13 12:41:30;;;;;;;4.03;0.90;;;32.20;52.40;;;;;;5381440;26;20668;-77
2024/04/13 12:43:56;;;;;;;1.93;0.70;;;32.10;52.60;;;;;;5400724;26;20629;-78
2024/04/13 12:46:23;;;;;;;1.80;0.60;;;32.10;52.80;;;;;;5446513;26;20540;-78
2024/04/13 12:48:49;;;;;;;2.33;1.00;;;32.10;53.00;;;;;;5420765;26;20718;-78